sensor_id;sensor_type;location;lat;lon;timestamp;P1;durP1;ratioP1;P2;durP2;ratioP2
151;SDS011;68;48.792;9.164;2023-07-24T00:00:54;32.00;;;13.67;;
151;SDS011;68;48.792;9.164;2023-07-24T00:03:20;32.67;;;16.60;;
151;SDS011;68;48.792;9.164;2023-07-24T00:05:47;31.67;;;16.20;;
151;SDS011;68;48.792;9.164;2023-07-24T00:08:15;31.77;;;15.00;;
151;SDS011;68;48.792;9.164;2023-07-24T00:10:42;32.30;;;17.77;;
151;SDS011;68;48.792;9.164;2023-07-24T00:13:09;31.90;;;17.80;;
151;SDS011;68;48.792;9.164;2023-07-24T00:15:35;31.07;;;15.93;;
151;SDS011;68;48.792;9.164;2023-07-24T00:18:04;35.43;;;18.87;;
151;SDS011;68;48.792;9.164;2023-07-24T00:20:31;36.23;;;20.17;;
151;SDS011;68;48.792;9.164;2023-07-24T00:22:58;29.60;;;15.97;;
151;SDS011;68;48.792;9.164;2023-07-24T00:25:26;36.07;;;20.73;;
151;SDS011;68;48.792;9.164;2023-07-24T00:27:53;34.90;;;18.80;;
151;SDS011;68;48.792;9.164;2023-07-24T00:30:20;35.57;;;18.10;;
151;SDS011;68;48.792;9.164;2023-07-24T00:32:47;37.90;;;20.30;;
151;SDS011;68;48.792;9.164;2023-07-24T00:35:13;35.50;;;20.37;;
151;SDS011;68;48.792;9.164;2023-07-24T00:37:40;38.33;;;19.60;;
151;SDS011;68;48.792;9.164;2023-07-24T00:40:07;36.40;;;21.17;;
151;SDS011;68;48.792;9.164;2023-07-24T00:42:36;34.27;;;21.43;;
151;SDS011;68;48.792;9.164;2023-07-24T00:45:03;35.97;;;20.00;;
151;SDS011;68;48.792;9.164;2023-07-24T00:47:30;35.17;;;20.23;;
151;SDS011;68;48.792;9.164;2023-07-24T00:49:57;38.60;;;24.67;;
151;SDS011;68;48.792;9.164;2023-07-24T00:52:24;33.80;;;19.03;;
151;SDS011;68;48.792;9.164;2023-07-24T00:54:52;34.10;;;19.87;;
151;SDS011;68;48.792;9.164;2023-07-24T00:57:20;34.70;;;21.97;;
151;SDS011;68;48.792;9.164;2023-07-24T00:59:48;32.90;;;19.90;;
151;SDS011;68;48.792;9.164;2023-07-24T01:02:15;35.87;;;19.23;;
151;SDS011;68;48.792;9.164;2023-07-24T01:04:42;35.50;;;20.27;;
151;SDS011;68;48.792;9.164;2023-07-24T01:07:09;38.97;;;23.43;;
151;SDS011;68;48.792;9.164;2023-07-24T01:09:36;32.80;;;19.90;;
151;SDS011;68;48.792;9.164;2023-07-24T01:12:04;41.93;;;23.77;;
151;SDS011;68;48.792;9.164;2023-07-24T01:14:38;36.60;;;22.03;;
151;SDS011;68;48.792;9.164;2023-07-24T01:17:10;37.80;;;22.57;;
151;SDS011;68;48.792;9.164;2023-07-24T01:19:43;39.50;;;21.70;;
151;SDS011;68;48.792;9.164;2023-07-24T01:22:15;37.30;;;22.10;;
151;SDS011;68;48.792;9.164;2023-07-24T01:25:04;33.90;;;20.07;;
151;SDS011;68;48.792;9.164;2023-07-24T01:27:41;34.23;;;21.17;;
151;SDS011;68;48.792;9.164;2023-07-24T01:30:08;41.13;;;24.40;;
151;SDS011;68;48.792;9.164;2023-07-24T01:32:36;37.20;;;23.97;;
151;SDS011;68;48.792;9.164;2023-07-24T01:35:03;39.50;;;21.67;;
151;SDS011;68;48.792;9.164;2023-07-24T01:37:31;40.67;;;22.60;;
151;SDS011;68;48.792;9.164;2023-07-24T01:40:00;33.30;;;20.37;;
151;SDS011;68;48.792;9.164;2023-07-24T01:42:27;34.63;;;19.33;;
151;SDS011;68;48.792;9.164;2023-07-24T01:44:55;37.47;;;22.20;;
151;SDS011;68;48.792;9.164;2023-07-24T01:47:22;39.30;;;23.97;;
151;SDS011;68;48.792;9.164;2023-07-24T01:49:49;39.17;;;25.30;;
151;SDS011;68;48.792;9.164;2023-07-24T01:52:16;34.47;;;19.57;;
151;SDS011;68;48.792;9.164;2023-07-24T01:54:43;36.63;;;22.60;;
151;SDS011;68;48.792;9.164;2023-07-24T01:57:10;37.70;;;24.27;;
151;SDS011;68;48.792;9.164;2023-07-24T01:59:37;38.30;;;23.53;;
151;SDS011;68;48.792;9.164;2023-07-24T02:02:05;35.67;;;21.00;;
151;SDS011;68;48.792;9.164;2023-07-24T02:04:32;38.73;;;22.03;;
151;SDS011;68;48.792;9.164;2023-07-24T02:06:59;34.60;;;21.17;;
151;SDS011;68;48.792;9.164;2023-07-24T02:09:25;35.80;;;18.87;;
151;SDS011;68;48.792;9.164;2023-07-24T02:11:52;36.30;;;22.70;;
151;SDS011;68;48.792;9.164;2023-07-24T02:14:19;36.40;;;22.67;;
151;SDS011;68;48.792;9.164;2023-07-24T02:16:46;36.97;;;23.93;;
151;SDS011;68;48.792;9.164;2023-07-24T02:19:15;35.97;;;20.20;;
151;SDS011;68;48.792;9.164;2023-07-24T02:21:41;40.87;;;23.87;;
151;SDS011;68;48.792;9.164;2023-07-24T02:24:08;35.17;;;22.60;;
151;SDS011;68;48.792;9.164;2023-07-24T02:26:35;31.97;;;19.07;;
151;SDS011;68;48.792;9.164;2023-07-24T02:29:02;33.40;;;19.20;;
151;SDS011;68;48.792;9.164;2023-07-24T02:31:28;34.87;;;21.30;;
151;SDS011;68;48.792;9.164;2023-07-24T02:33:55;35.40;;;18.80;;
151;SDS011;68;48.792;9.164;2023-07-24T02:36:23;34.90;;;20.53;;
151;SDS011;68;48.792;9.164;2023-07-24T02:38:50;32.17;;;18.53;;
151;SDS011;68;48.792;9.164;2023-07-24T02:41:17;38.97;;;21.00;;
151;SDS011;68;48.792;9.164;2023-07-24T02:43:44;33.00;;;19.70;;
151;SDS011;68;48.792;9.164;2023-07-24T02:46:10;33.40;;;19.90;;
151;SDS011;68;48.792;9.164;2023-07-24T02:48:37;36.63;;;21.77;;
151;SDS011;68;48.792;9.164;2023-07-24T02:51:04;36.50;;;21.70;;
151;SDS011;68;48.792;9.164;2023-07-24T02:53:32;34.80;;;19.93;;
151;SDS011;68;48.792;9.164;2023-07-24T02:56:00;35.17;;;21.37;;
151;SDS011;68;48.792;9.164;2023-07-24T02:58:27;33.47;;;19.10;;
151;SDS011;68;48.792;9.164;2023-07-24T03:00:54;37.73;;;22.87;;
151;SDS011;68;48.792;9.164;2023-07-24T03:03:28;37.00;;;19.17;;
151;SDS011;68;48.792;9.164;2023-07-24T03:05:54;33.67;;;18.83;;
151;SDS011;68;48.792;9.164;2023-07-24T03:08:21;30.17;;;16.50;;
151;SDS011;68;48.792;9.164;2023-07-24T03:10:49;31.37;;;18.70;;
151;SDS011;68;48.792;9.164;2023-07-24T03:13:16;31.80;;;19.00;;
151;SDS011;68;48.792;9.164;2023-07-24T03:15:43;31.83;;;17.97;;
151;SDS011;68;48.792;9.164;2023-07-24T03:18:11;34.70;;;20.47;;
151;SDS011;68;48.792;9.164;2023-07-24T03:20:37;35.57;;;21.17;;
151;SDS011;68;48.792;9.164;2023-07-24T03:23:04;38.10;;;19.17;;
151;SDS011;68;48.792;9.164;2023-07-24T03:25:31;34.30;;;18.43;;
151;SDS011;68;48.792;9.164;2023-07-24T03:28:01;33.73;;;17.53;;
151;SDS011;68;48.792;9.164;2023-07-24T03:30:29;33.10;;;18.33;;
151;SDS011;68;48.792;9.164;2023-07-24T03:32:56;30.50;;;17.37;;
151;SDS011;68;48.792;9.164;2023-07-24T03:35:23;34.17;;;20.20;;
151;SDS011;68;48.792;9.164;2023-07-24T03:37:49;34.00;;;17.63;;
151;SDS011;68;48.792;9.164;2023-07-24T03:40:16;34.40;;;17.87;;
151;SDS011;68;48.792;9.164;2023-07-24T03:42:43;33.20;;;20.30;;
151;SDS011;68;48.792;9.164;2023-07-24T03:45:11;35.40;;;19.63;;
151;SDS011;68;48.792;9.164;2023-07-24T03:47:38;34.67;;;20.03;;
151;SDS011;68;48.792;9.164;2023-07-24T03:50:05;35.60;;;19.73;;
151;SDS011;68;48.792;9.164;2023-07-24T03:52:32;34.77;;;18.20;;
151;SDS011;68;48.792;9.164;2023-07-24T03:54:59;32.27;;;18.30;;
151;SDS011;68;48.792;9.164;2023-07-24T03:57:26;38.47;;;18.70;;
151;SDS011;68;48.792;9.164;2023-07-24T03:59:52;34.47;;;18.90;;
151;SDS011;68;48.792;9.164;2023-07-24T04:02:20;33.50;;;18.93;;
151;SDS011;68;48.792;9.164;2023-07-24T04:04:47;32.37;;;18.00;;
151;SDS011;68;48.792;9.164;2023-07-24T04:07:14;36.83;;;18.93;;
151;SDS011;68;48.792;9.164;2023-07-24T04:09:41;31.70;;;17.00;;
151;SDS011;68;48.792;9.164;2023-07-24T04:12:08;36.70;;;18.30;;
151;SDS011;68;48.792;9.164;2023-07-24T04:14:34;34.40;;;19.20;;
151;SDS011;68;48.792;9.164;2023-07-24T04:17:01;31.37;;;17.07;;
151;SDS011;68;48.792;9.164;2023-07-24T04:19:29;33.60;;;19.63;;
151;SDS011;68;48.792;9.164;2023-07-24T04:21:56;31.67;;;17.17;;
151;SDS011;68;48.792;9.164;2023-07-24T04:24:23;34.17;;;16.67;;
151;SDS011;68;48.792;9.164;2023-07-24T04:26:49;31.07;;;16.60;;
151;SDS011;68;48.792;9.164;2023-07-24T04:29:16;32.70;;;16.07;;
151;SDS011;68;48.792;9.164;2023-07-24T04:31:43;31.77;;;16.50;;
151;SDS011;68;48.792;9.164;2023-07-24T04:34:10;30.00;;;14.80;;
151;SDS011;68;48.792;9.164;2023-07-24T04:36:38;30.17;;;15.57;;
151;SDS011;68;48.792;9.164;2023-07-24T04:39:05;31.37;;;17.70;;
151;SDS011;68;48.792;9.164;2023-07-24T04:41:31;34.13;;;18.83;;
151;SDS011;68;48.792;9.164;2023-07-24T04:43:58;32.47;;;17.67;;
151;SDS011;68;48.792;9.164;2023-07-24T04:46:25;31.33;;;17.20;;
151;SDS011;68;48.792;9.164;2023-07-24T04:48:51;31.93;;;16.40;;
151;SDS011;68;48.792;9.164;2023-07-24T04:51:18;32.20;;;16.50;;
151;SDS011;68;48.792;9.164;2023-07-24T04:53:46;38.63;;;16.50;;
151;SDS011;68;48.792;9.164;2023-07-24T04:56:13;33.47;;;17.47;;
151;SDS011;68;48.792;9.164;2023-07-24T04:58:40;32.77;;;17.80;;
151;SDS011;68;48.792;9.164;2023-07-24T05:01:06;31.87;;;14.10;;
151;SDS011;68;48.792;9.164;2023-07-24T05:03:34;33.70;;;17.47;;
151;SDS011;68;48.792;9.164;2023-07-24T05:06:01;33.33;;;17.07;;
151;SDS011;68;48.792;9.164;2023-07-24T05:08:28;31.70;;;14.33;;
151;SDS011;68;48.792;9.164;2023-07-24T05:10:57;28.80;;;13.10;;
151;SDS011;68;48.792;9.164;2023-07-24T05:13:24;35.20;;;12.85;;
151;SDS011;68;48.792;9.164;2023-07-24T05:15:51;31.97;;;15.97;;
151;SDS011;68;48.792;9.164;2023-07-24T05:18:18;33.03;;;16.37;;
151;SDS011;68;48.792;9.164;2023-07-24T05:20:45;31.57;;;15.87;;
151;SDS011;68;48.792;9.164;2023-07-24T05:23:13;34.10;;;14.00;;
151;SDS011;68;48.792;9.164;2023-07-24T05:25:40;30.93;;;15.67;;
151;SDS011;68;48.792;9.164;2023-07-24T05:28:09;30.97;;;16.70;;
151;SDS011;68;48.792;9.164;2023-07-24T05:30:36;32.40;;;16.10;;
151;SDS011;68;48.792;9.164;2023-07-24T05:33:02;33.23;;;16.20;;
151;SDS011;68;48.792;9.164;2023-07-24T05:35:29;32.37;;;17.10;;
151;SDS011;68;48.792;9.164;2023-07-24T05:37:56;30.07;;;13.87;;
151;SDS011;68;48.792;9.164;2023-07-24T05:40:23;31.47;;;15.60;;
151;SDS011;68;48.792;9.164;2023-07-24T05:42:49;29.20;;;14.73;;
151;SDS011;68;48.792;9.164;2023-07-24T05:45:17;32.57;;;17.33;;
151;SDS011;68;48.792;9.164;2023-07-24T05:47:44;39.83;;;16.37;;
151;SDS011;68;48.792;9.164;2023-07-24T05:50:11;32.70;;;16.60;;
151;SDS011;68;48.792;9.164;2023-07-24T05:52:39;31.60;;;14.90;;
151;SDS011;68;48.792;9.164;2023-07-24T05:55:06;30.27;;;16.17;;
151;SDS011;68;48.792;9.164;2023-07-24T05:57:34;30.80;;;16.77;;
151;SDS011;68;48.792;9.164;2023-07-24T06:00:00;32.40;;;14.50;;
151;SDS011;68;48.792;9.164;2023-07-24T06:02:29;35.53;;;15.57;;
151;SDS011;68;48.792;9.164;2023-07-24T06:04:56;32.77;;;16.43;;
151;SDS011;68;48.792;9.164;2023-07-24T06:07:22;33.07;;;16.67;;
151;SDS011;68;48.792;9.164;2023-07-24T06:09:49;31.97;;;14.70;;
151;SDS011;68;48.792;9.164;2023-07-24T06:12:16;32.30;;;14.73;;
151;SDS011;68;48.792;9.164;2023-07-24T06:14:43;32.97;;;16.20;;
151;SDS011;68;48.792;9.164;2023-07-24T06:17:10;35.20;;;16.43;;
151;SDS011;68;48.792;9.164;2023-07-24T06:19:38;32.50;;;13.63;;
151;SDS011;68;48.792;9.164;2023-07-24T06:22:05;29.20;;;13.17;;
151;SDS011;68;48.792;9.164;2023-07-24T06:24:31;32.73;;;15.20;;
151;SDS011;68;48.792;9.164;2023-07-24T06:26:58;34.00;;;17.00;;
151;SDS011;68;48.792;9.164;2023-07-24T06:29:25;32.23;;;14.87;;
151;SDS011;68;48.792;9.164;2023-07-24T06:31:52;32.17;;;15.47;;
151;SDS011;68;48.792;9.164;2023-07-24T06:34:18;33.40;;;13.10;;
151;SDS011;68;48.792;9.164;2023-07-24T06:36:47;32.30;;;14.30;;
151;SDS011;68;48.792;9.164;2023-07-24T06:39:13;31.10;;;15.67;;
151;SDS011;68;48.792;9.164;2023-07-24T06:41:40;33.70;;;15.00;;
151;SDS011;68;48.792;9.164;2023-07-24T06:44:07;35.40;;;15.90;;
151;SDS011;68;48.792;9.164;2023-07-24T06:46:34;33.87;;;15.60;;
151;SDS011;68;48.792;9.164;2023-07-24T06:49:01;32.40;;;14.37;;
151;SDS011;68;48.792;9.164;2023-07-24T06:51:27;33.40;;;14.17;;
151;SDS011;68;48.792;9.164;2023-07-24T06:53:55;31.70;;;13.70;;
151;SDS011;68;48.792;9.164;2023-07-24T06:56:22;28.67;;;13.27;;
151;SDS011;68;48.792;9.164;2023-07-24T06:58:49;30.87;;;13.13;;
151;SDS011;68;48.792;9.164;2023-07-24T07:01:16;31.13;;;14.57;;
151;SDS011;68;48.792;9.164;2023-07-24T07:03:42;32.20;;;15.73;;
151;SDS011;68;48.792;9.164;2023-07-24T07:06:09;32.07;;;13.90;;
151;SDS011;68;48.792;9.164;2023-07-24T07:08:37;30.70;;;14.87;;
151;SDS011;68;48.792;9.164;2023-07-24T07:11:05;32.97;;;15.10;;
151;SDS011;68;48.792;9.164;2023-07-24T07:13:32;29.63;;;14.27;;
151;SDS011;68;48.792;9.164;2023-07-24T07:15:58;32.37;;;13.40;;
151;SDS011;68;48.792;9.164;2023-07-24T07:18:25;30.10;;;13.50;;
151;SDS011;68;48.792;9.164;2023-07-24T07:20:52;31.33;;;14.63;;
151;SDS011;68;48.792;9.164;2023-07-24T07:23:20;31.80;;;13.77;;
151;SDS011;68;48.792;9.164;2023-07-24T07:25:47;29.00;;;13.27;;
151;SDS011;68;48.792;9.164;2023-07-24T07:28:15;34.40;;;14.47;;
151;SDS011;68;48.792;9.164;2023-07-24T07:30:44;39.67;;;14.20;;
151;SDS011;68;48.792;9.164;2023-07-24T07:33:10;32.80;;;14.77;;
151;SDS011;68;48.792;9.164;2023-07-24T07:35:37;31.80;;;13.60;;
151;SDS011;68;48.792;9.164;2023-07-24T07:38:04;36.03;;;14.10;;
151;SDS011;68;48.792;9.164;2023-07-24T07:40:31;29.77;;;12.80;;
151;SDS011;68;48.792;9.164;2023-07-24T07:42:58;32.23;;;14.00;;
151;SDS011;68;48.792;9.164;2023-07-24T07:45:26;30.47;;;13.67;;
151;SDS011;68;48.792;9.164;2023-07-24T07:47:52;32.77;;;13.87;;
151;SDS011;68;48.792;9.164;2023-07-24T07:50:19;28.47;;;13.13;;
151;SDS011;68;48.792;9.164;2023-07-24T07:52:48;35.43;;;15.47;;
151;SDS011;68;48.792;9.164;2023-07-24T07:55:16;32.70;;;13.53;;
151;SDS011;68;48.792;9.164;2023-07-24T07:57:43;32.77;;;13.53;;
151;SDS011;68;48.792;9.164;2023-07-24T08:00:11;35.97;;;14.57;;
151;SDS011;68;48.792;9.164;2023-07-24T08:02:39;36.23;;;15.80;;
151;SDS011;68;48.792;9.164;2023-07-24T08:05:06;31.83;;;14.77;;
151;SDS011;68;48.792;9.164;2023-07-24T08:07:34;33.80;;;13.37;;
151;SDS011;68;48.792;9.164;2023-07-24T08:10:00;29.27;;;12.73;;
151;SDS011;68;48.792;9.164;2023-07-24T08:12:27;29.73;;;13.90;;
151;SDS011;68;48.792;9.164;2023-07-24T08:14:55;32.70;;;15.37;;
151;SDS011;68;48.792;9.164;2023-07-24T08:17:22;33.53;;;13.87;;
151;SDS011;68;48.792;9.164;2023-07-24T08:19:50;31.97;;;14.17;;
151;SDS011;68;48.792;9.164;2023-07-24T08:22:17;36.10;;;15.03;;
151;SDS011;68;48.792;9.164;2023-07-24T08:24:45;33.47;;;16.10;;
151;SDS011;68;48.792;9.164;2023-07-24T08:27:12;38.17;;;15.47;;
151;SDS011;68;48.792;9.164;2023-07-24T08:29:38;33.67;;;17.57;;
151;SDS011;68;48.792;9.164;2023-07-24T08:32:05;40.60;;;17.87;;
151;SDS011;68;48.792;9.164;2023-07-24T08:34:32;33.07;;;15.40;;
151;SDS011;68;48.792;9.164;2023-07-24T08:37:01;39.23;;;20.50;;
151;SDS011;68;48.792;9.164;2023-07-24T08:39:27;39.47;;;18.87;;
151;SDS011;68;48.792;9.164;2023-07-24T08:41:54;34.27;;;17.00;;
151;SDS011;68;48.792;9.164;2023-07-24T08:44:22;32.50;;;16.93;;
151;SDS011;68;48.792;9.164;2023-07-24T08:46:51;35.50;;;17.27;;
151;SDS011;68;48.792;9.164;2023-07-24T08:49:18;34.77;;;18.63;;
151;SDS011;68;48.792;9.164;2023-07-24T08:51:45;41.43;;;17.23;;
151;SDS011;68;48.792;9.164;2023-07-24T08:54:14;32.67;;;16.87;;
151;SDS011;68;48.792;9.164;2023-07-24T08:56:42;39.47;;;21.03;;
151;SDS011;68;48.792;9.164;2023-07-24T08:59:12;39.67;;;18.50;;
151;SDS011;68;48.792;9.164;2023-07-24T09:01:39;36.70;;;18.60;;
151;SDS011;68;48.792;9.164;2023-07-24T09:04:06;42.63;;;18.43;;
151;SDS011;68;48.792;9.164;2023-07-24T09:06:32;34.17;;;16.90;;
151;SDS011;68;48.792;9.164;2023-07-24T09:09:00;32.17;;;17.30;;
151;SDS011;68;48.792;9.164;2023-07-24T09:11:29;37.50;;;18.97;;
151;SDS011;68;48.792;9.164;2023-07-24T09:13:56;30.13;;;15.60;;
151;SDS011;68;48.792;9.164;2023-07-24T09:16:23;32.03;;;15.20;;
151;SDS011;68;48.792;9.164;2023-07-24T09:18:52;31.57;;;15.33;;
151;SDS011;68;48.792;9.164;2023-07-24T09:21:26;31.60;;;16.10;;
151;SDS011;68;48.792;9.164;2023-07-24T09:23:53;29.67;;;13.20;;
151;SDS011;68;48.792;9.164;2023-07-24T09:26:20;32.83;;;16.57;;
151;SDS011;68;48.792;9.164;2023-07-24T09:28:52;30.60;;;15.27;;
151;SDS011;68;48.792;9.164;2023-07-24T09:31:19;29.77;;;13.70;;
151;SDS011;68;48.792;9.164;2023-07-24T09:33:46;32.20;;;15.80;;
151;SDS011;68;48.792;9.164;2023-07-24T09:36:13;30.43;;;12.80;;
151;SDS011;68;48.792;9.164;2023-07-24T09:38:40;36.40;;;17.53;;
151;SDS011;68;48.792;9.164;2023-07-24T09:41:07;29.20;;;15.17;;
151;SDS011;68;48.792;9.164;2023-07-24T09:43:34;30.57;;;15.60;;
151;SDS011;68;48.792;9.164;2023-07-24T09:46:03;32.87;;;15.20;;
151;SDS011;68;48.792;9.164;2023-07-24T09:48:31;35.50;;;15.90;;
151;SDS011;68;48.792;9.164;2023-07-24T09:51:00;31.50;;;12.50;;
151;SDS011;68;48.792;9.164;2023-07-24T09:53:29;30.27;;;14.70;;
151;SDS011;68;48.792;9.164;2023-07-24T09:56:00;30.07;;;15.67;;
151;SDS011;68;48.792;9.164;2023-07-24T09:58:30;34.67;;;17.23;;
151;SDS011;68;48.792;9.164;2023-07-24T10:00:59;28.53;;;13.07;;
151;SDS011;68;48.792;9.164;2023-07-24T10:03:29;31.93;;;12.80;;
151;SDS011;68;48.792;9.164;2023-07-24T10:05:57;46.90;;;27.07;;
151;SDS011;68;48.792;9.164;2023-07-24T10:08:23;38.80;;;21.47;;
151;SDS011;68;48.792;9.164;2023-07-24T10:10:51;27.27;;;12.57;;
151;SDS011;68;48.792;9.164;2023-07-24T10:13:18;28.53;;;15.07;;
151;SDS011;68;48.792;9.164;2023-07-24T10:15:46;34.00;;;12.67;;
151;SDS011;68;48.792;9.164;2023-07-24T10:18:15;26.50;;;13.10;;
151;SDS011;68;48.792;9.164;2023-07-24T10:20:43;29.57;;;14.33;;
151;SDS011;68;48.792;9.164;2023-07-24T10:23:11;33.27;;;15.50;;
151;SDS011;68;48.792;9.164;2023-07-24T10:25:44;30.17;;;16.37;;
151;SDS011;68;48.792;9.164;2023-07-24T10:28:12;28.30;;;13.90;;
151;SDS011;68;48.792;9.164;2023-07-24T10:30:41;30.83;;;13.70;;
151;SDS011;68;48.792;9.164;2023-07-24T10:33:09;29.40;;;14.80;;
151;SDS011;68;48.792;9.164;2023-07-24T10:35:40;28.80;;;14.53;;
151;SDS011;68;48.792;9.164;2023-07-24T10:38:10;38.37;;;14.70;;
151;SDS011;68;48.792;9.164;2023-07-24T10:40:37;30.17;;;16.20;;
151;SDS011;68;48.792;9.164;2023-07-24T10:43:05;30.27;;;15.07;;
151;SDS011;68;48.792;9.164;2023-07-24T10:45:40;31.90;;;15.30;;
151;SDS011;68;48.792;9.164;2023-07-24T10:48:07;33.13;;;18.87;;
151;SDS011;68;48.792;9.164;2023-07-24T10:50:37;33.37;;;17.17;;
151;SDS011;68;48.792;9.164;2023-07-24T10:53:04;30.97;;;16.00;;
151;SDS011;68;48.792;9.164;2023-07-24T10:55:32;31.93;;;17.33;;
151;SDS011;68;48.792;9.164;2023-07-24T10:57:59;32.73;;;15.27;;
151;SDS011;68;48.792;9.164;2023-07-24T11:00:26;34.80;;;18.60;;
151;SDS011;68;48.792;9.164;2023-07-24T11:02:53;32.90;;;14.97;;
151;SDS011;68;48.792;9.164;2023-07-24T11:05:20;35.07;;;20.43;;
151;SDS011;68;48.792;9.164;2023-07-24T11:07:47;37.60;;;14.50;;
151;SDS011;68;48.792;9.164;2023-07-24T11:10:14;35.00;;;19.20;;
151;SDS011;68;48.792;9.164;2023-07-24T11:12:43;37.10;;;18.80;;
151;SDS011;68;48.792;9.164;2023-07-24T11:15:10;34.53;;;17.60;;
151;SDS011;68;48.792;9.164;2023-07-24T11:17:38;37.73;;;17.80;;
151;SDS011;68;48.792;9.164;2023-07-24T11:20:07;53.53;;;21.10;;
151;SDS011;68;48.792;9.164;2023-07-24T11:22:35;34.00;;;19.67;;
151;SDS011;68;48.792;9.164;2023-07-24T11:25:04;36.90;;;20.53;;
151;SDS011;68;48.792;9.164;2023-07-24T11:27:31;37.53;;;18.97;;
151;SDS011;68;48.792;9.164;2023-07-24T11:30:00;36.90;;;23.03;;
151;SDS011;68;48.792;9.164;2023-07-24T11:32:27;37.47;;;21.53;;
151;SDS011;68;48.792;9.164;2023-07-24T11:34:53;43.00;;;23.27;;
151;SDS011;68;48.792;9.164;2023-07-24T11:37:20;34.10;;;19.90;;
151;SDS011;68;48.792;9.164;2023-07-24T11:39:57;36.83;;;22.27;;
151;SDS011;68;48.792;9.164;2023-07-24T11:42:29;33.27;;;18.53;;
151;SDS011;68;48.792;9.164;2023-07-24T11:44:59;40.43;;;20.50;;
151;SDS011;68;48.792;9.164;2023-07-24T11:47:28;34.80;;;18.70;;
151;SDS011;68;48.792;9.164;2023-07-24T11:49:56;32.17;;;17.60;;
151;SDS011;68;48.792;9.164;2023-07-24T11:52:24;30.67;;;16.90;;
151;SDS011;68;48.792;9.164;2023-07-24T11:54:57;33.13;;;16.10;;
151;SDS011;68;48.792;9.164;2023-07-24T11:57:26;31.10;;;17.10;;
151;SDS011;68;48.792;9.164;2023-07-24T11:59:53;28.70;;;16.23;;
151;SDS011;68;48.792;9.164;2023-07-24T12:02:24;30.20;;;15.63;;
151;SDS011;68;48.792;9.164;2023-07-24T12:04:55;32.87;;;18.57;;
151;SDS011;68;48.792;9.164;2023-07-24T12:07:28;33.63;;;17.13;;
151;SDS011;68;48.792;9.164;2023-07-24T12:09:56;34.57;;;17.57;;
151;SDS011;68;48.792;9.164;2023-07-24T12:12:23;36.37;;;18.93;;
151;SDS011;68;48.792;9.164;2023-07-24T12:14:50;31.43;;;17.30;;
151;SDS011;68;48.792;9.164;2023-07-24T12:17:17;38.63;;;22.37;;
151;SDS011;68;48.792;9.164;2023-07-24T12:19:46;33.33;;;17.17;;
151;SDS011;68;48.792;9.164;2023-07-24T12:22:13;33.30;;;20.10;;
151;SDS011;68;48.792;9.164;2023-07-24T12:24:40;38.07;;;18.50;;
151;SDS011;68;48.792;9.164;2023-07-24T12:27:07;30.63;;;16.10;;
151;SDS011;68;48.792;9.164;2023-07-24T12:29:33;33.97;;;18.43;;
151;SDS011;68;48.792;9.164;2023-07-24T12:32:00;31.10;;;17.97;;
151;SDS011;68;48.792;9.164;2023-07-24T12:34:27;33.83;;;18.47;;
151;SDS011;68;48.792;9.164;2023-07-24T12:36:55;31.80;;;16.87;;
151;SDS011;68;48.792;9.164;2023-07-24T12:39:22;32.40;;;17.07;;
151;SDS011;68;48.792;9.164;2023-07-24T12:41:49;29.10;;;16.13;;
151;SDS011;68;48.792;9.164;2023-07-24T12:44:15;30.87;;;16.20;;
151;SDS011;68;48.792;9.164;2023-07-24T12:46:42;31.80;;;17.30;;
151;SDS011;68;48.792;9.164;2023-07-24T12:49:09;32.00;;;16.47;;
151;SDS011;68;48.792;9.164;2023-07-24T12:51:36;29.20;;;15.20;;
151;SDS011;68;48.792;9.164;2023-07-24T12:54:04;30.53;;;17.37;;
151;SDS011;68;48.792;9.164;2023-07-24T12:56:31;30.43;;;16.47;;
151;SDS011;68;48.792;9.164;2023-07-24T12:58:58;30.17;;;15.03;;
151;SDS011;68;48.792;9.164;2023-07-24T13:01:24;26.87;;;12.20;;
151;SDS011;68;48.792;9.164;2023-07-24T13:03:53;30.03;;;15.17;;
151;SDS011;68;48.792;9.164;2023-07-24T13:06:20;29.30;;;14.00;;
151;SDS011;68;48.792;9.164;2023-07-24T13:08:47;29.00;;;13.10;;
151;SDS011;68;48.792;9.164;2023-07-24T13:11:16;29.90;;;15.53;;
151;SDS011;68;48.792;9.164;2023-07-24T13:13:43;29.43;;;14.97;;
151;SDS011;68;48.792;9.164;2023-07-24T13:16:10;28.27;;;13.50;;
151;SDS011;68;48.792;9.164;2023-07-24T13:18:37;26.90;;;11.80;;
151;SDS011;68;48.792;9.164;2023-07-24T13:21:03;25.17;;;12.17;;
151;SDS011;68;48.792;9.164;2023-07-24T13:23:31;26.20;;;11.53;;
151;SDS011;68;48.792;9.164;2023-07-24T13:25:58;25.80;;;11.40;;
151;SDS011;68;48.792;9.164;2023-07-24T13:28:26;26.27;;;11.60;;
151;SDS011;68;48.792;9.164;2023-07-24T13:30:53;24.37;;;11.00;;
151;SDS011;68;48.792;9.164;2023-07-24T13:33:20;30.00;;;12.90;;
151;SDS011;68;48.792;9.164;2023-07-24T13:35:48;25.50;;;10.60;;
151;SDS011;68;48.792;9.164;2023-07-24T13:38:15;25.03;;;10.40;;
151;SDS011;68;48.792;9.164;2023-07-24T13:40:42;25.10;;;10.33;;
151;SDS011;68;48.792;9.164;2023-07-24T13:43:09;25.40;;;11.00;;
151;SDS011;68;48.792;9.164;2023-07-24T13:45:37;25.40;;;11.07;;
151;SDS011;68;48.792;9.164;2023-07-24T13:48:04;26.30;;;11.40;;
151;SDS011;68;48.792;9.164;2023-07-24T13:50:31;25.50;;;10.37;;
151;SDS011;68;48.792;9.164;2023-07-24T13:52:58;25.20;;;10.60;;
151;SDS011;68;48.792;9.164;2023-07-24T13:55:24;24.53;;;10.60;;
151;SDS011;68;48.792;9.164;2023-07-24T13:57:51;23.87;;;9.90;;
151;SDS011;68;48.792;9.164;2023-07-24T14:00:18;29.20;;;8.93;;
151;SDS011;68;48.792;9.164;2023-07-24T14:02:47;22.27;;;8.60;;
151;SDS011;68;48.792;9.164;2023-07-24T14:05:15;22.20;;;8.47;;
151;SDS011;68;48.792;9.164;2023-07-24T14:07:42;23.93;;;8.87;;
151;SDS011;68;48.792;9.164;2023-07-24T14:10:09;21.90;;;8.70;;
151;SDS011;68;48.792;9.164;2023-07-24T14:12:37;24.50;;;8.07;;
151;SDS011;68;48.792;9.164;2023-07-24T14:15:04;22.87;;;8.63;;
151;SDS011;68;48.792;9.164;2023-07-24T14:17:31;21.93;;;8.43;;
151;SDS011;68;48.792;9.164;2023-07-24T14:20:01;34.13;;;8.57;;
151;SDS011;68;48.792;9.164;2023-07-24T14:22:28;21.83;;;7.97;;
151;SDS011;68;48.792;9.164;2023-07-24T14:24:54;21.50;;;7.90;;
151;SDS011;68;48.792;9.164;2023-07-24T14:27:21;21.47;;;7.67;;
151;SDS011;68;48.792;9.164;2023-07-24T14:29:48;22.50;;;7.70;;
151;SDS011;68;48.792;9.164;2023-07-24T14:32:15;21.43;;;8.03;;
151;SDS011;68;48.792;9.164;2023-07-24T14:34:41;21.03;;;8.37;;
151;SDS011;68;48.792;9.164;2023-07-24T14:37:10;21.13;;;7.20;;
151;SDS011;68;48.792;9.164;2023-07-24T14:39:36;21.20;;;8.00;;
151;SDS011;68;48.792;9.164;2023-07-24T14:42:04;22.20;;;7.73;;
151;SDS011;68;48.792;9.164;2023-07-24T14:44:31;23.30;;;7.33;;
151;SDS011;68;48.792;9.164;2023-07-24T14:46:58;21.50;;;7.30;;
151;SDS011;68;48.792;9.164;2023-07-24T14:49:24;22.87;;;9.20;;
151;SDS011;68;48.792;9.164;2023-07-24T14:51:51;20.93;;;7.50;;
151;SDS011;68;48.792;9.164;2023-07-24T14:54:19;21.97;;;7.73;;
151;SDS011;68;48.792;9.164;2023-07-24T14:56:46;20.87;;;7.60;;
151;SDS011;68;48.792;9.164;2023-07-24T14:59:13;20.17;;;7.17;;
151;SDS011;68;48.792;9.164;2023-07-24T15:01:40;21.13;;;7.50;;
151;SDS011;68;48.792;9.164;2023-07-24T15:04:06;22.03;;;7.77;;
151;SDS011;68;48.792;9.164;2023-07-24T15:06:33;22.40;;;7.80;;
151;SDS011;68;48.792;9.164;2023-07-24T15:09:00;21.60;;;8.13;;
151;SDS011;68;48.792;9.164;2023-07-24T15:11:28;23.10;;;8.50;;
151;SDS011;68;48.792;9.164;2023-07-24T15:13:55;20.97;;;7.50;;
151;SDS011;68;48.792;9.164;2023-07-24T15:16:21;24.30;;;8.00;;
151;SDS011;68;48.792;9.164;2023-07-24T15:18:48;24.67;;;7.43;;
151;SDS011;68;48.792;9.164;2023-07-24T15:21:15;20.57;;;7.27;;
151;SDS011;68;48.792;9.164;2023-07-24T15:23:42;22.73;;;7.80;;
151;SDS011;68;48.792;9.164;2023-07-24T15:26:08;21.30;;;7.33;;
151;SDS011;68;48.792;9.164;2023-07-24T15:28:37;25.53;;;7.67;;
151;SDS011;68;48.792;9.164;2023-07-24T15:31:03;22.73;;;7.67;;
151;SDS011;68;48.792;9.164;2023-07-24T15:33:30;26.73;;;8.30;;